createdAt,value
2018-07-22T00:01:50.561Z,22.90
2018-07-22T00:04:16.559Z,22.87
2018-07-22T00:06:42.536Z,22.85
2018-07-22T00:09:08.535Z,23.03
2018-07-22T00:11:34.525Z,23.20
2018-07-22T00:14:00.575Z,22.82
2018-07-22T00:16:26.563Z,22.71
2018-07-22T00:18:52.522Z,22.87
2018-07-22T00:21:18.575Z,22.90
2018-07-22T00:23:44.543Z,23.17
2018-07-22T00:26:10.520Z,22.62
2018-07-22T00:28:36.501Z,23.05
2018-07-22T00:31:02.472Z,22.97
2018-07-22T00:33:28.489Z,23.17
2018-07-22T00:35:54.515Z,23.19
2018-07-22T00:38:20.498Z,23.19
2018-07-22T00:40:46.572Z,23.06
2018-07-22T00:43:12.549Z,23.07
2018-07-22T00:45:38.533Z,22.63
2018-07-22T00:48:04.532Z,22.49
2018-07-22T00:50:30.522Z,22.74
2018-07-22T00:52:56.492Z,22.74
2018-07-22T00:55:22.493Z,22.87
2018-07-22T00:57:48.498Z,22.98
2018-07-22T01:00:14.807Z,22.97
2018-07-22T01:02:40.858Z,22.76
2018-07-22T01:05:06.846Z,22.52
2018-07-22T01:07:32.791Z,22.64
2018-07-22T01:09:58.769Z,22.31
2018-07-22T01:12:24.819Z,22.21
2018-07-22T01:14:50.845Z,22.38
2018-07-22T01:17:16.856Z,22.29
2018-07-22T01:19:42.852Z,21.97
2018-07-22T01:22:08.890Z,22.24
2018-07-22T01:24:34.935Z,22.43
2018-07-22T01:27:00.911Z,22.38
2018-07-22T01:29:26.909Z,22.43
2018-07-22T01:31:52.905Z,22.53
2018-07-22T01:34:18.856Z,22.57
2018-07-22T01:36:44.846Z,22.62
2018-07-22T01:39:10.867Z,22.67
2018-07-22T01:41:36.849Z,22.70
2018-07-22T01:44:02.845Z,22.37
2018-07-22T01:46:28.832Z,22.78
2018-07-22T01:48:54.788Z,22.88
2018-07-22T01:51:20.786Z,22.55
2018-07-22T01:53:46.773Z,22.51
2018-07-22T01:56:12.729Z,22.66
2018-07-22T01:58:38.696Z,22.67
2018-07-22T02:01:04.686Z,22.69
2018-07-22T02:03:30.690Z,22.28
2018-07-22T02:05:56.741Z,22.30
2018-07-22T02:08:22.848Z,22.60
2018-07-22T02:10:48.873Z,22.46
2018-07-22T02:13:14.907Z,22.20
2018-07-22T02:15:40.927Z,22.44
2018-07-22T02:18:06.940Z,22.45
2018-07-22T02:20:32.934Z,21.91
2018-07-22T02:22:58.914Z,21.73
2018-07-22T02:25:24.933Z,21.97
2018-07-22T02:27:50.924Z,21.76
2018-07-22T02:30:16.947Z,21.67
2018-07-22T02:32:42.943Z,21.69
2018-07-22T02:35:08.963Z,21.85
2018-07-22T02:37:35.004Z,21.60
2018-07-22T02:40:00.977Z,21.62
2018-07-22T02:42:26.958Z,21.68
2018-07-22T02:44:52.952Z,21.80
2018-07-22T02:47:18.930Z,21.62
2018-07-22T02:49:44.884Z,22.00
2018-07-22T02:52:10.864Z,21.72
2018-07-22T02:54:36.832Z,21.91
2018-07-22T02:57:02.813Z,21.86
2018-07-22T02:59:29.251Z,21.98
2018-07-22T03:01:55.205Z,21.66
2018-07-22T03:04:21.248Z,21.66
2018-07-22T03:06:48.195Z,21.36
2018-07-22T03:09:14.349Z,21.48
2018-07-22T03:11:40.346Z,21.34
2018-07-22T03:14:06.382Z,21.69
2018-07-22T03:16:32.338Z,21.75
2018-07-22T03:18:58.337Z,22.05
2018-07-22T03:21:24.326Z,22.18
2018-07-22T03:23:50.309Z,22.01
2018-07-22T03:26:16.297Z,21.96
2018-07-22T03:28:42.290Z,21.60
2018-07-22T03:31:08.279Z,21.63
2018-07-22T03:33:34.300Z,22.03
2018-07-22T03:36:00.297Z,21.66
2018-07-22T03:38:26.277Z,21.73
2018-07-22T03:40:52.228Z,21.65
2018-07-22T03:43:18.248Z,21.85
2018-07-22T03:45:44.245Z,21.79
2018-07-22T03:48:10.238Z,21.68
2018-07-22T03:50:36.227Z,21.72
2018-07-22T03:53:02.234Z,21.81
2018-07-22T03:55:28.194Z,21.66
2018-07-22T03:57:54.155Z,21.65
2018-07-22T04:00:20.153Z,21.71
2018-07-22T04:02:46.137Z,21.88
2018-07-22T04:05:12.082Z,21.72
2018-07-22T04:10:10.494Z,21.75
2018-07-22T04:12:36.460Z,21.65
2018-07-22T04:15:02.486Z,21.40
2018-07-22T04:17:28.454Z,21.61
2018-07-22T04:19:54.439Z,22.31
2018-07-22T04:22:20.610Z,22.48
2018-07-22T04:24:46.595Z,22.46
2018-07-22T04:27:12.634Z,22.26
2018-07-22T04:29:38.629Z,22.43
2018-07-22T04:32:04.627Z,22.39
2018-07-22T04:34:30.623Z,22.23
2018-07-22T04:36:56.593Z,22.36
2018-07-22T04:39:22.588Z,22.53
2018-07-22T04:41:48.590Z,22.75
2018-07-22T04:44:14.593Z,22.54
2018-07-22T04:46:40.607Z,22.54
2018-07-22T04:49:06.599Z,22.71
2018-07-22T04:51:32.584Z,22.99
2018-07-22T04:53:58.584Z,23.21
2018-07-22T04:56:24.627Z,23.34
2018-07-22T04:58:50.612Z,23.43
2018-07-22T05:01:16.563Z,23.18
2018-07-22T05:03:42.555Z,23.32
2018-07-22T05:06:08.656Z,23.37
2018-07-22T05:08:34.650Z,23.57
2018-07-22T05:11:00.672Z,23.69
2018-07-22T05:13:26.674Z,23.41
2018-07-22T05:15:52.636Z,23.39
2018-07-22T05:18:18.635Z,23.38
2018-07-22T05:20:44.683Z,23.37
2018-07-22T05:23:10.674Z,23.16
2018-07-22T05:25:36.642Z,23.52
2018-07-22T05:28:02.664Z,23.77
2018-07-22T05:30:28.713Z,23.79
2018-07-22T05:32:54.673Z,23.86
2018-07-22T05:35:20.663Z,23.81
2018-07-22T05:37:46.618Z,23.80
2018-07-22T05:40:12.721Z,24.01
2018-07-22T05:42:38.665Z,23.96
2018-07-22T05:45:04.609Z,24.09
2018-07-22T05:47:30.651Z,24.13
2018-07-22T05:49:56.606Z,24.15
2018-07-22T05:52:22.580Z,24.39
2018-07-22T05:54:48.548Z,24.39
2018-07-22T05:57:14.519Z,24.39
2018-07-22T05:59:40.473Z,24.41
2018-07-22T06:02:06.491Z,24.56
2018-07-22T06:04:32.585Z,24.41
2018-07-22T06:06:58.616Z,24.58
2018-07-22T06:09:25.756Z,24.67
2018-07-22T06:11:51.826Z,24.74
2018-07-22T06:14:17.757Z,24.88
2018-07-22T06:16:43.750Z,24.72
2018-07-22T06:19:09.749Z,24.75
2018-07-22T06:21:35.776Z,24.86
2018-07-22T06:24:03.165Z,24.94
2018-07-22T06:26:29.153Z,24.80
2018-07-22T06:28:55.178Z,24.65
2018-07-22T06:31:21.164Z,24.70
2018-07-22T06:33:47.151Z,24.79
2018-07-22T06:36:13.185Z,24.74
2018-07-22T06:38:39.192Z,24.82
2018-07-22T06:41:05.207Z,25.28
2018-07-22T06:43:31.172Z,25.40
2018-07-22T06:45:58.188Z,25.41
2018-07-22T06:48:24.272Z,25.57
2018-07-22T06:50:50.235Z,25.84
2018-07-22T06:53:16.229Z,25.61
2018-07-22T06:55:42.248Z,25.49
2018-07-22T06:58:08.251Z,25.75
2018-07-22T07:00:34.232Z,25.84
2018-07-22T07:03:00.255Z,25.67
2018-07-22T07:05:26.284Z,25.42
2018-07-22T07:07:52.248Z,25.49
2018-07-22T07:10:18.285Z,25.53
2018-07-22T07:12:44.258Z,25.59
2018-07-22T07:15:10.278Z,25.61
2018-07-22T07:17:36.241Z,25.52
2018-07-22T07:20:02.209Z,25.56
2018-07-22T07:22:28.257Z,25.65
2018-07-22T07:24:54.307Z,25.79
2018-07-22T07:27:20.320Z,25.89
2018-07-22T07:29:46.341Z,26.23
2018-07-22T07:32:12.383Z,26.37
2018-07-22T07:34:38.425Z,26.50
2018-07-22T07:37:04.465Z,26.78
2018-07-22T07:39:30.438Z,27.04
2018-07-22T07:41:56.384Z,26.89
2018-07-22T07:44:22.351Z,27.08
2018-07-22T07:46:48.461Z,27.07
2018-07-22T07:49:14.773Z,27.12
2018-07-22T07:51:40.747Z,27.09
2018-07-22T07:54:06.710Z,27.05
2018-07-22T07:56:32.730Z,27.27
2018-07-22T07:58:58.702Z,27.27
2018-07-22T08:01:24.743Z,27.24
2018-07-22T08:03:50.754Z,27.20
2018-07-22T08:06:16.815Z,27.23
2018-07-22T08:08:42.832Z,27.02
2018-07-22T08:11:08.795Z,26.95
2018-07-22T08:13:34.812Z,26.97
2018-07-22T08:16:00.871Z,27.27
2018-07-22T08:18:26.883Z,27.37
2018-07-22T08:20:52.880Z,27.30
2018-07-22T08:23:18.881Z,27.41
2018-07-22T08:25:45.291Z,27.41
2018-07-22T08:28:11.293Z,27.51
2018-07-22T08:30:37.388Z,27.61
2018-07-22T08:33:03.358Z,27.61
2018-07-22T08:35:29.379Z,27.52
2018-07-22T08:37:55.340Z,27.60
2018-07-22T08:40:21.362Z,27.62
2018-07-22T08:42:47.349Z,27.45
2018-07-22T08:45:13.350Z,27.35
2018-07-22T08:47:39.310Z,27.28
2018-07-22T08:50:05.309Z,27.15
2018-07-22T08:52:31.312Z,26.93
2018-07-22T08:54:57.300Z,26.97
2018-07-22T08:57:23.308Z,27.10
2018-07-22T08:59:49.279Z,26.91
2018-07-22T09:02:15.304Z,26.90
2018-07-22T09:04:41.344Z,26.79
2018-07-22T09:07:07.354Z,26.71
2018-07-22T09:09:33.385Z,26.74
2018-07-22T09:11:59.392Z,26.75
2018-07-22T09:14:25.354Z,26.73
2018-07-22T09:16:51.379Z,26.75
2018-07-22T09:19:17.373Z,26.77
2018-07-22T09:21:43.365Z,26.88
2018-07-22T09:24:09.379Z,26.79
2018-07-22T09:26:35.444Z,26.76
2018-07-22T09:29:01.456Z,26.76
2018-07-22T09:31:27.462Z,26.80
2018-07-22T09:33:53.449Z,26.82
2018-07-22T09:36:19.471Z,26.70
2018-07-22T09:38:45.791Z,26.60
2018-07-22T09:41:11.814Z,26.64
2018-07-22T09:43:37.817Z,26.69
2018-07-22T09:46:03.898Z,26.75
2018-07-22T09:48:29.959Z,26.80
2018-07-22T09:50:55.991Z,26.65
2018-07-22T09:53:21.992Z,26.74
2018-07-22T09:55:48.036Z,26.78
2018-07-22T09:58:14.084Z,26.72
2018-07-22T10:00:40.091Z,26.75
2018-07-22T10:03:06.074Z,26.84
2018-07-22T10:05:32.125Z,26.79
2018-07-22T10:07:58.113Z,26.73
2018-07-22T10:10:24.142Z,26.81
2018-07-22T10:12:50.178Z,26.76
2018-07-22T10:15:16.177Z,26.76
2018-07-22T10:17:42.214Z,26.68
2018-07-22T10:20:08.265Z,26.74
2018-07-22T10:22:34.246Z,26.74
2018-07-22T10:25:00.243Z,26.75
2018-07-22T10:27:26.244Z,26.76
2018-07-22T10:29:52.276Z,26.79
2018-07-22T10:32:19.066Z,26.78
2018-07-22T10:34:45.115Z,26.73
2018-07-22T10:37:11.132Z,26.72
2018-07-22T10:39:37.102Z,26.73
2018-07-22T10:42:03.113Z,26.80
2018-07-22T10:44:29.197Z,26.86
2018-07-22T10:46:56.187Z,26.81
2018-07-22T10:49:22.213Z,26.82
2018-07-22T10:51:48.218Z,26.81
2018-07-22T10:54:14.184Z,26.81
2018-07-22T10:56:40.529Z,26.78
2018-07-22T10:59:06.599Z,26.85
2018-07-22T11:01:32.595Z,26.86
2018-07-22T11:03:58.547Z,26.77
2018-07-22T11:06:24.537Z,26.80
2018-07-22T11:08:50.603Z,26.82
2018-07-22T11:11:16.680Z,26.89
2018-07-22T11:13:42.637Z,26.87
2018-07-22T11:16:08.623Z,26.87
2018-07-22T11:18:34.629Z,26.80
2018-07-22T11:21:00.701Z,26.81
2018-07-22T11:23:26.618Z,26.78
2018-07-22T11:25:52.566Z,26.78
2018-07-22T11:28:18.536Z,26.79
2018-07-22T11:30:44.556Z,26.80
2018-07-22T11:33:10.609Z,26.78
2018-07-22T11:35:36.556Z,26.81
2018-07-22T11:38:02.550Z,26.86
2018-07-22T11:40:28.543Z,26.89
2018-07-22T11:42:54.597Z,26.88
2018-07-22T11:45:20.525Z,26.92
2018-07-22T11:47:46.503Z,26.93
2018-07-22T11:50:12.454Z,26.91
2018-07-22T11:52:38.476Z,26.91
2018-07-22T11:55:04.466Z,26.87
2018-07-22T11:57:30.467Z,26.80
2018-07-22T11:59:56.531Z,26.79
2018-07-22T12:02:22.556Z,26.79
2018-07-22T12:04:48.502Z,26.78
2018-07-22T12:07:14.448Z,26.74
2018-07-22T12:09:40.504Z,26.79
2018-07-22T12:12:06.520Z,26.79
2018-07-22T12:14:32.495Z,26.79
2018-07-22T12:16:58.498Z,26.83
2018-07-22T12:19:24.477Z,26.80
2018-07-22T12:21:50.527Z,26.81
2018-07-22T12:24:17.865Z,26.85
2018-07-22T12:26:43.861Z,26.92
2018-07-22T12:29:10.978Z,26.85
2018-07-22T12:31:37.031Z,26.85
2018-07-22T12:34:03.182Z,26.84
2018-07-22T12:36:29.232Z,26.85
2018-07-22T12:38:55.306Z,26.83
2018-07-22T12:41:21.372Z,26.83
2018-07-22T12:43:47.477Z,26.81
2018-07-22T12:46:13.495Z,26.85
2018-07-22T12:48:39.530Z,26.88
2018-07-22T12:51:05.556Z,26.85
2018-07-22T12:53:31.582Z,26.88
2018-07-22T12:55:57.596Z,26.85
2018-07-22T12:58:23.631Z,26.85
2018-07-22T13:00:49.731Z,26.87
2018-07-22T13:03:15.760Z,26.86
2018-07-22T13:05:41.774Z,26.84
2018-07-22T13:08:07.756Z,26.86
2018-07-22T13:10:33.756Z,26.85
2018-07-22T13:13:02.600Z,26.83
2018-07-22T13:15:29.822Z,26.91
2018-07-22T13:17:55.855Z,26.95
2018-07-22T13:20:21.859Z,26.93
2018-07-22T13:22:47.830Z,26.90
2018-07-22T13:25:13.877Z,26.88
2018-07-22T13:27:39.871Z,26.89
2018-07-22T13:30:05.846Z,26.90
2018-07-22T13:32:31.968Z,26.95
2018-07-22T13:34:58.081Z,26.99
2018-07-22T13:37:24.094Z,26.97
2018-07-22T13:39:50.096Z,26.94
2018-07-22T13:42:16.058Z,26.97
2018-07-22T13:44:42.032Z,26.96
2018-07-22T13:47:07.999Z,26.99
2018-07-22T13:49:34.005Z,27.07
2018-07-22T13:52:00.064Z,27.06
2018-07-22T13:54:26.035Z,27.05
2018-07-22T13:56:52.046Z,27.10
2018-07-22T13:59:18.026Z,27.10
2018-07-22T14:01:43.990Z,27.10
2018-07-22T14:04:09.984Z,27.09
2018-07-22T14:06:36.009Z,27.10
2018-07-22T14:09:02.017Z,27.13
2018-07-22T14:11:28.063Z,27.11
2018-07-22T14:13:54.033Z,27.08
2018-07-22T14:16:20.014Z,27.10
2018-07-22T14:18:46.037Z,27.08
2018-07-22T14:21:12.022Z,27.09
2018-07-22T14:23:38.008Z,27.11
2018-07-22T14:26:04.030Z,27.11
2018-07-22T14:28:30.048Z,27.06
2018-07-22T14:30:56.013Z,27.07
2018-07-22T14:33:21.959Z,27.06
2018-07-22T14:35:49.253Z,27.08
2018-07-22T14:38:15.238Z,27.06
2018-07-22T14:40:41.287Z,27.01
2018-07-22T14:43:07.285Z,27.06
2018-07-22T14:45:33.325Z,27.07
2018-07-22T14:47:59.357Z,27.05
2018-07-22T14:50:25.444Z,27.06
2018-07-22T14:52:53.640Z,27.06
2018-07-22T14:55:19.653Z,27.07
2018-07-22T14:57:45.640Z,27.06
2018-07-22T15:00:11.665Z,27.04
2018-07-22T15:02:42.594Z,27.05
2018-07-22T15:05:08.598Z,26.99
2018-07-22T15:07:34.613Z,27.00
2018-07-22T15:10:00.596Z,26.98
2018-07-22T15:12:29.911Z,26.99
2018-07-22T15:14:55.885Z,26.97
2018-07-22T15:17:21.882Z,26.94
2018-07-22T15:19:51.416Z,26.94
2018-07-22T15:22:17.521Z,26.92
2018-07-22T15:24:46.470Z,26.88
2018-07-22T15:27:12.525Z,26.95
2018-07-22T15:29:38.595Z,26.94
2018-07-22T15:32:04.584Z,26.93
2018-07-22T15:34:30.537Z,26.94
2018-07-22T15:36:56.585Z,26.93
2018-07-22T15:39:22.522Z,26.91
2018-07-22T15:41:48.508Z,26.92
2018-07-22T15:44:14.518Z,26.92
2018-07-22T15:46:40.471Z,26.92
2018-07-22T15:49:06.525Z,26.93
2018-07-22T15:51:32.533Z,26.91
2018-07-22T15:53:58.480Z,26.89
2018-07-22T15:56:24.508Z,26.90
2018-07-22T15:58:50.542Z,26.89
2018-07-22T16:01:16.535Z,26.90
2018-07-22T16:03:42.485Z,26.88
2018-07-22T16:06:08.489Z,26.87
2018-07-22T16:08:34.520Z,26.86
2018-07-22T16:11:00.534Z,26.84
2018-07-22T16:13:26.670Z,26.85
2018-07-22T16:15:52.693Z,26.86
2018-07-22T16:18:19.727Z,26.82
2018-07-22T16:20:45.765Z,26.80
2018-07-22T16:23:11.853Z,26.83
2018-07-22T16:25:37.798Z,26.80
2018-07-22T16:28:03.750Z,26.82
2018-07-22T16:30:29.725Z,26.82
2018-07-22T16:32:55.713Z,26.81
2018-07-22T16:35:21.738Z,26.82
2018-07-22T16:37:47.819Z,26.78
2018-07-22T16:40:13.798Z,26.77
2018-07-22T16:42:39.800Z,26.76
2018-07-22T16:45:05.758Z,26.75
2018-07-22T16:47:31.741Z,26.77
2018-07-22T16:49:58.632Z,26.76
2018-07-22T16:52:24.683Z,26.75
2018-07-22T16:54:50.726Z,26.74
2018-07-22T16:57:16.714Z,26.74
2018-07-22T16:59:42.677Z,26.75
2018-07-22T17:02:08.655Z,26.73
2018-07-22T17:04:34.617Z,26.73
2018-07-22T17:07:00.610Z,26.73
2018-07-22T17:09:26.690Z,26.73
2018-07-22T17:11:52.690Z,26.76
2018-07-22T17:14:18.674Z,26.77
2018-07-22T17:16:44.684Z,26.76
2018-07-22T17:19:10.635Z,26.74
2018-07-22T17:21:36.604Z,26.68
2018-07-22T17:24:02.591Z,26.65
2018-07-22T17:26:28.617Z,26.65
2018-07-22T17:28:54.572Z,26.66
2018-07-22T17:31:20.562Z,26.60
2018-07-22T17:33:46.544Z,26.56
2018-07-22T17:36:12.552Z,26.56
2018-07-22T17:38:38.545Z,26.67
2018-07-22T17:41:04.509Z,26.55
2018-07-22T17:43:30.499Z,26.51
2018-07-22T17:45:56.465Z,26.43
2018-07-22T17:48:23.503Z,26.63
2018-07-22T17:50:49.487Z,26.71
2018-07-22T17:53:15.491Z,26.62
2018-07-22T17:55:41.516Z,26.63
2018-07-22T17:58:07.541Z,26.61
2018-07-22T18:00:33.568Z,26.59
2018-07-22T18:03:00.720Z,26.59
2018-07-22T18:05:26.790Z,26.57
2018-07-22T18:07:52.811Z,26.59
2018-07-22T18:10:23.554Z,26.60
2018-07-22T18:12:49.598Z,26.58
2018-07-22T18:15:15.784Z,26.62
2018-07-22T18:17:42.011Z,26.59
2018-07-22T18:20:08.011Z,26.61
2018-07-22T18:22:34.082Z,26.57
2018-07-22T18:25:00.086Z,26.60
2018-07-22T18:27:26.104Z,26.61
2018-07-22T18:29:52.089Z,26.51
2018-07-22T18:32:18.081Z,26.55
2018-07-22T18:34:44.028Z,26.41
2018-07-22T18:37:10.162Z,26.42
2018-07-22T18:39:36.075Z,26.43
2018-07-22T18:42:02.234Z,26.51
2018-07-22T18:44:28.589Z,26.35
2018-07-22T18:46:54.658Z,26.41
2018-07-22T18:49:20.682Z,26.35
2018-07-22T18:51:46.720Z,26.43
2018-07-22T18:54:12.775Z,26.47
2018-07-22T18:56:38.840Z,26.46
2018-07-22T18:59:04.822Z,26.50
2018-07-22T19:01:30.806Z,26.46
2018-07-22T19:03:56.837Z,26.27
2018-07-22T19:06:22.809Z,26.29
2018-07-22T19:08:48.790Z,26.21
2018-07-22T19:11:14.815Z,26.02
2018-07-22T19:13:40.998Z,25.99
2018-07-22T19:16:06.973Z,25.93
2018-07-22T19:18:34.099Z,26.04
2018-07-22T19:21:00.145Z,26.12
2018-07-22T19:23:26.144Z,25.87
2018-07-22T19:25:52.181Z,25.93
2018-07-22T19:28:18.247Z,26.02
2018-07-22T19:30:44.445Z,25.99
2018-07-22T19:33:10.571Z,25.98
2018-07-22T19:35:36.589Z,25.96
2018-07-22T19:38:02.762Z,25.91
2018-07-22T19:40:28.880Z,25.96
2018-07-22T19:42:54.904Z,25.92
2018-07-22T19:45:21.019Z,25.66
2018-07-22T19:47:47.043Z,25.64
2018-07-22T19:50:13.070Z,25.62
2018-07-22T19:52:39.106Z,25.62
2018-07-22T19:55:05.304Z,25.60
2018-07-22T19:57:31.320Z,25.60
2018-07-22T19:59:57.321Z,25.65
2018-07-22T20:02:23.341Z,25.62
2018-07-22T20:04:49.391Z,25.57
2018-07-22T20:07:15.398Z,25.61
2018-07-22T20:09:41.434Z,25.64
2018-07-22T20:12:07.444Z,25.46
2018-07-22T20:14:33.474Z,25.67
2018-07-22T20:16:59.637Z,25.69
2018-07-22T20:19:25.643Z,25.74
2018-07-22T20:21:51.832Z,25.60
2018-07-22T20:24:17.993Z,25.62
2018-07-22T20:26:43.920Z,25.71
2018-07-22T20:29:09.907Z,25.69
2018-07-22T20:31:35.843Z,25.73
2018-07-22T20:34:01.819Z,25.58
2018-07-22T20:36:27.836Z,25.59
2018-07-22T20:38:53.845Z,25.65
2018-07-22T20:41:19.858Z,25.52
2018-07-22T20:43:45.910Z,25.63
2018-07-22T20:46:11.900Z,25.51
2018-07-22T20:48:37.857Z,25.63
2018-07-22T20:51:03.944Z,25.56
2018-07-22T20:53:29.947Z,25.63
2018-07-22T20:55:56.046Z,25.63
2018-07-22T20:58:22.017Z,25.54
2018-07-22T21:00:48.016Z,25.47
2018-07-22T21:03:14.012Z,25.52
2018-07-22T21:05:39.947Z,25.31
2018-07-22T21:08:05.979Z,25.45
2018-07-22T21:10:31.888Z,25.38
2018-07-22T21:12:57.922Z,25.22
2018-07-22T21:15:23.968Z,25.32
2018-07-22T21:17:49.932Z,25.37
2018-07-22T21:20:15.915Z,25.39
2018-07-22T21:22:41.885Z,25.47
2018-07-22T21:25:07.897Z,25.23
2018-07-22T21:27:33.868Z,25.48
2018-07-22T21:30:00.648Z,25.27
2018-07-22T21:32:26.634Z,25.28
2018-07-22T21:34:52.613Z,25.34
2018-07-22T21:37:18.545Z,25.30
2018-07-22T21:39:44.535Z,25.00
2018-07-22T21:42:10.506Z,25.09
2018-07-22T21:44:36.444Z,25.07
2018-07-22T21:47:02.409Z,25.00
2018-07-22T21:49:28.385Z,25.03
2018-07-22T21:51:54.381Z,25.00
2018-07-22T21:54:20.408Z,25.08
2018-07-22T21:56:46.423Z,25.29
2018-07-22T21:59:12.414Z,25.21
2018-07-22T22:01:38.476Z,25.12
2018-07-22T22:04:04.447Z,24.81
2018-07-22T22:06:30.406Z,24.54
2018-07-22T22:08:56.392Z,24.46
2018-07-22T22:11:22.610Z,24.36
2018-07-22T22:13:54.203Z,24.28
2018-07-22T22:16:20.172Z,24.27
2018-07-22T22:18:46.156Z,24.50
2018-07-22T22:21:12.165Z,24.43
2018-07-22T22:23:38.143Z,24.42
2018-07-22T22:26:04.129Z,24.35
2018-07-22T22:28:30.075Z,24.06
2018-07-22T22:30:56.047Z,24.18
2018-07-22T22:33:21.992Z,24.05
2018-07-22T22:35:47.992Z,23.96
2018-07-22T22:38:13.952Z,23.97
2018-07-22T22:40:39.906Z,24.15
2018-07-22T22:43:05.863Z,23.98
2018-07-22T22:45:31.828Z,23.73
2018-07-22T22:47:57.763Z,23.98
2018-07-22T22:50:24.458Z,23.98
2018-07-22T22:52:50.422Z,24.12
2018-07-22T22:55:16.404Z,23.79
2018-07-22T22:57:42.358Z,23.87
2018-07-22T23:00:08.333Z,24.22
2018-07-22T23:02:34.291Z,24.11
2018-07-22T23:05:00.297Z,23.86
2018-07-22T23:07:26.281Z,23.98
2018-07-22T23:09:52.253Z,23.73
2018-07-22T23:12:18.186Z,23.36
2018-07-22T23:14:44.140Z,23.53
2018-07-22T23:17:10.099Z,23.56
2018-07-22T23:19:36.115Z,23.44
2018-07-22T23:22:02.071Z,23.40
2018-07-22T23:24:28.025Z,23.27
2018-07-22T23:26:54.008Z,23.38
2018-07-22T23:29:19.990Z,23.44
2018-07-22T23:31:45.946Z,23.34
2018-07-22T23:34:11.910Z,23.21
2018-07-22T23:36:37.875Z,23.18
2018-07-22T23:39:03.848Z,23.10
2018-07-22T23:41:29.802Z,23.06
2018-07-22T23:43:55.782Z,22.99
2018-07-22T23:46:21.748Z,23.11
2018-07-22T23:48:47.700Z,23.04
2018-07-22T23:51:13.692Z,23.03
2018-07-22T23:53:39.637Z,23.00
2018-07-22T23:56:05.582Z,22.88
2018-07-22T23:58:31.550Z,22.92
